sensor_id;sensor_type;location;lat;lon;timestamp;pressure;altitude;pressure_sealevel;temperature;humidity
57644;BME280;43474;46.510;6.686;2022-12-18T00:01:26;97326.97;;;-0.97;100.00
57644;BME280;43474;46.510;6.686;2022-12-18T00:03:54;97310.13;;;-0.93;100.00
57644;BME280;43474;46.510;6.686;2022-12-18T00:06:20;97312.41;;;-0.90;100.00
57644;BME280;43474;46.510;6.686;2022-12-18T00:08:47;97320.47;;;-0.74;100.00
57644;BME280;43474;46.510;6.686;2022-12-18T00:11:18;97316.06;;;-0.73;100.00
57644;BME280;43474;46.510;6.686;2022-12-18T00:13:44;97334.53;;;-0.67;100.00
57644;BME280;43474;46.510;6.686;2022-12-18T00:16:13;97305.28;;;-0.79;100.00
57644;BME280;43474;46.510;6.686;2022-12-18T00:18:39;97336.84;;;-0.64;100.00
57644;BME280;43474;46.510;6.686;2022-12-18T00:21:07;97331.94;;;-0.67;100.00
57644;BME280;43474;46.510;6.686;2022-12-18T00:23:34;97337.28;;;-0.68;100.00
57644;BME280;43474;46.510;6.686;2022-12-18T00:26:01;97331.38;;;-0.70;100.00
57644;BME280;43474;46.510;6.686;2022-12-18T00:28:27;97323.72;;;-0.72;100.00
57644;BME280;43474;46.510;6.686;2022-12-18T00:31:08;97315.38;;;-0.75;100.00
57644;BME280;43474;46.510;6.686;2022-12-18T00:33:34;97331.81;;;-0.75;100.00
57644;BME280;43474;46.510;6.686;2022-12-18T00:36:05;97333.56;;;-0.66;100.00
57644;BME280;43474;46.510;6.686;2022-12-18T00:38:31;97327.53;;;-0.66;100.00
57644;BME280;43474;46.510;6.686;2022-12-18T00:40:57;97320.75;;;-0.77;100.00
57644;BME280;43474;46.510;6.686;2022-12-18T00:43:22;97336.03;;;-0.64;100.00
57644;BME280;43474;46.510;6.686;2022-12-18T00:45:48;97316.19;;;-0.75;100.00
57644;BME280;43474;46.510;6.686;2022-12-18T00:48:14;97316.19;;;-0.75;100.00
57644;BME280;43474;46.510;6.686;2022-12-18T00:50:39;97318.53;;;-0.72;100.00
57644;BME280;43474;46.510;6.686;2022-12-18T00:53:05;97326.88;;;-0.68;100.00
57644;BME280;43474;46.510;6.686;2022-12-18T00:55:30;97314.06;;;-0.80;100.00
57644;BME280;43474;46.510;6.686;2022-12-18T00:57:56;97333.16;;;-0.71;100.00
57644;BME280;43474;46.510;6.686;2022-12-18T01:00:22;97338.34;;;-0.61;100.00
57644;BME280;43474;46.510;6.686;2022-12-18T01:02:47;97335.06;;;-0.63;100.00
57644;BME280;43474;46.510;6.686;2022-12-18T01:05:14;97350.78;;;-0.55;100.00
57644;BME280;43474;46.510;6.686;2022-12-18T01:07:40;97333.53;;;-0.56;100.00
57644;BME280;43474;46.510;6.686;2022-12-18T01:10:07;97346.25;;;-0.53;100.00
57644;BME280;43474;46.510;6.686;2022-12-18T01:12:33;97361.03;;;-0.44;100.00
57644;BME280;43474;46.510;6.686;2022-12-18T01:14:59;97350.34;;;-0.50;100.00
57644;BME280;43474;46.510;6.686;2022-12-18T01:17:24;97371.13;;;-0.41;100.00
57644;BME280;43474;46.510;6.686;2022-12-18T01:19:50;97369.22;;;-0.39;100.00
57644;BME280;43474;46.510;6.686;2022-12-18T01:22:15;97362.66;;;-0.43;100.00
57644;BME280;43474;46.510;6.686;2022-12-18T01:24:41;97350.16;;;-0.39;100.00
57644;BME280;43474;46.510;6.686;2022-12-18T01:27:07;97367.66;;;-0.32;100.00
57644;BME280;43474;46.510;6.686;2022-12-18T01:29:32;97365.50;;;-0.36;100.00
57644;BME280;43474;46.510;6.686;2022-12-18T01:31:58;97357.84;;;-0.38;100.00
57644;BME280;43474;46.510;6.686;2022-12-18T01:34:24;97383.25;;;-0.22;100.00
57644;BME280;43474;46.510;6.686;2022-12-18T01:36:49;97396.97;;;-0.20;100.00
57644;BME280;43474;46.510;6.686;2022-12-18T01:39:18;97408.69;;;-0.16;100.00
57644;BME280;43474;46.510;6.686;2022-12-18T01:41:44;97402.69;;;-0.16;100.00
57644;BME280;43474;46.510;6.686;2022-12-18T01:44:53;97412.50;;;-0.10;100.00
57644;BME280;43474;46.510;6.686;2022-12-18T01:47:38;97406.34;;;-0.09;100.00
57644;BME280;43474;46.510;6.686;2022-12-18T01:50:23;97416.47;;;-0.06;100.00
57644;BME280;43474;46.510;6.686;2022-12-18T01:52:56;97410.22;;;-0.13;100.00
57644;BME280;43474;46.510;6.686;2022-12-18T01:55:30;97421.69;;;-0.06;100.00
57644;BME280;43474;46.510;6.686;2022-12-18T01:57:58;97408.00;;;-0.08;100.00
57644;BME280;43474;46.510;6.686;2022-12-18T02:00:25;97403.59;;;-0.08;100.00
57644;BME280;43474;46.510;6.686;2022-12-18T02:02:52;97405.94;;;-0.05;100.00
57644;BME280;43474;46.510;6.686;2022-12-18T02:05:27;97410.97;;;-0.03;100.00
57644;BME280;43474;46.510;6.686;2022-12-18T02:08:04;97421.78;;;0.02;100.00
57644;BME280;43474;46.510;6.686;2022-12-18T02:10:41;97420.72;;;-0.05;100.00
57644;BME280;43474;46.510;6.686;2022-12-18T02:16:07;97435.47;;;0.04;100.00
57644;BME280;43474;46.510;6.686;2022-12-18T02:18:37;97427.72;;;-0.06;100.00
57644;BME280;43474;46.510;6.686;2022-12-18T02:21:09;97437.41;;;0.02;100.00
57644;BME280;43474;46.510;6.686;2022-12-18T02:23:49;97442.03;;;0.08;100.00
57644;BME280;43474;46.510;6.686;2022-12-18T02:26:55;97444.13;;;0.05;100.00
57644;BME280;43474;46.510;6.686;2022-12-18T02:29:16;97442.78;;;0.01;100.00
57644;BME280;43474;46.510;6.686;2022-12-18T02:31:47;97434.03;;;-0.08;100.00
57644;BME280;43474;46.510;6.686;2022-12-18T02:34:14;97433.06;;;-0.07;100.00
57644;BME280;43474;46.510;6.686;2022-12-18T02:36:43;97432.25;;;-0.08;100.00
57644;BME280;43474;46.510;6.686;2022-12-18T02:39:11;97437.03;;;-0.03;100.00
57644;BME280;43474;46.510;6.686;2022-12-18T02:41:38;97430.75;;;-0.10;100.00
57644;BME280;43474;46.510;6.686;2022-12-18T02:44:08;97432.97;;;-0.15;100.00
57644;BME280;43474;46.510;6.686;2022-12-18T02:46:36;97444.50;;;-0.18;100.00
57644;BME280;43474;46.510;6.686;2022-12-18T02:51:53;97426.34;;;-0.37;100.00
57644;BME280;43474;46.510;6.686;2022-12-18T02:57:16;97438.72;;;-0.39;100.00
57644;BME280;43474;46.510;6.686;2022-12-18T02:59:58;97442.63;;;-0.35;100.00
57644;BME280;43474;46.510;6.686;2022-12-18T03:02:38;97446.91;;;-0.34;100.00
57644;BME280;43474;46.510;6.686;2022-12-18T03:05:12;97444.19;;;-0.42;100.00
57644;BME280;43474;46.510;6.686;2022-12-18T03:07:46;97422.31;;;-0.49;100.00
57644;BME280;43474;46.510;6.686;2022-12-18T03:10:17;97456.25;;;-0.41;100.00
57644;BME280;43474;46.510;6.686;2022-12-18T03:13:10;97457.09;;;-0.50;100.00
57644;BME280;43474;46.510;6.686;2022-12-18T03:15:42;97451.38;;;-0.64;100.00
57644;BME280;43474;46.510;6.686;2022-12-18T03:18:17;97454.28;;;-0.76;100.00
57644;BME280;43474;46.510;6.686;2022-12-18T03:20:45;97466.72;;;-0.70;100.00
57644;BME280;43474;46.510;6.686;2022-12-18T03:23:21;97451.00;;;-0.79;100.00
57644;BME280;43474;46.510;6.686;2022-12-18T03:25:51;97443.72;;;-0.85;100.00
57644;BME280;43474;46.510;6.686;2022-12-18T03:28:21;97440.84;;;-0.82;100.00
57644;BME280;43474;46.510;6.686;2022-12-18T03:30:50;97456.59;;;-0.73;100.00
57644;BME280;43474;46.510;6.686;2022-12-18T03:33:25;97433.88;;;-0.91;100.00
57644;BME280;43474;46.510;6.686;2022-12-18T03:35:52;97446.63;;;-0.88;100.00
57644;BME280;43474;46.510;6.686;2022-12-18T03:38:18;97448.00;;;-0.84;100.00
57644;BME280;43474;46.510;6.686;2022-12-18T03:40:53;97446.47;;;-0.86;100.00
57644;BME280;43474;46.510;6.686;2022-12-18T03:49:09;97459.50;;;-0.96;100.00
57644;BME280;43474;46.510;6.686;2022-12-18T03:52:01;97450.22;;;-0.98;100.00
57644;BME280;43474;46.510;6.686;2022-12-18T03:54:29;97438.44;;;-1.02;100.00
57644;BME280;43474;46.510;6.686;2022-12-18T03:57:09;97457.72;;;-1.05;100.00
57644;BME280;43474;46.510;6.686;2022-12-18T03:59:37;97452.00;;;-1.28;100.00
57644;BME280;43474;46.510;6.686;2022-12-18T04:02:05;97417.38;;;-1.58;100.00
57644;BME280;43474;46.510;6.686;2022-12-18T04:04:35;97459.78;;;-1.57;100.00
57644;BME280;43474;46.510;6.686;2022-12-18T04:07:03;97447.84;;;-1.69;100.00
57644;BME280;43474;46.510;6.686;2022-12-18T04:09:31;97438.41;;;-1.70;100.00
57644;BME280;43474;46.510;6.686;2022-12-18T04:11:57;97457.41;;;-1.70;100.00
57644;BME280;43474;46.510;6.686;2022-12-18T04:14:22;97449.50;;;-1.78;100.00
57644;BME280;43474;46.510;6.686;2022-12-18T04:16:48;97457.56;;;-1.71;100.00
57644;BME280;43474;46.510;6.686;2022-12-18T04:19:14;97435.38;;;-1.85;100.00
57644;BME280;43474;46.510;6.686;2022-12-18T04:21:39;97437.44;;;-1.89;100.00
57644;BME280;43474;46.510;6.686;2022-12-18T04:24:05;97453.41;;;-1.93;100.00
57644;BME280;43474;46.510;6.686;2022-12-18T04:26:30;97464.34;;;-1.90;100.00
57644;BME280;43474;46.510;6.686;2022-12-18T04:28:56;97453.09;;;-2.00;100.00
57644;BME280;43474;46.510;6.686;2022-12-18T04:31:22;97454.78;;;-1.99;100.00
57644;BME280;43474;46.510;6.686;2022-12-18T04:33:47;97464.88;;;-1.96;100.00
57644;BME280;43474;46.510;6.686;2022-12-18T04:36:13;97465.44;;;-1.92;100.00
57644;BME280;43474;46.510;6.686;2022-12-18T04:38:39;97454.59;;;-2.07;100.00
57644;BME280;43474;46.510;6.686;2022-12-18T04:41:04;97450.47;;;-2.10;100.00
57644;BME280;43474;46.510;6.686;2022-12-18T04:43:30;97460.78;;;-1.98;100.00
57644;BME280;43474;46.510;6.686;2022-12-18T04:46:06;97464.06;;;-1.96;100.00
57644;BME280;43474;46.510;6.686;2022-12-18T04:48:32;97474.47;;;-1.87;100.00
57644;BME280;43474;46.510;6.686;2022-12-18T04:50:58;97460.41;;;-1.94;100.00
57644;BME280;43474;46.510;6.686;2022-12-18T04:53:23;97480.53;;;-1.76;100.00
57644;BME280;43474;46.510;6.686;2022-12-18T04:55:49;97484.78;;;-1.66;100.00
57644;BME280;43474;46.510;6.686;2022-12-18T04:58:15;97477.28;;;-1.59;100.00
57644;BME280;43474;46.510;6.686;2022-12-18T05:00:41;97488.22;;;-1.46;100.00
57644;BME280;43474;46.510;6.686;2022-12-18T05:03:06;97479.47;;;-1.45;100.00
57644;BME280;43474;46.510;6.686;2022-12-18T05:05:34;97476.22;;;-1.37;100.00
57644;BME280;43474;46.510;6.686;2022-12-18T05:08:00;97483.88;;;-1.26;100.00
57644;BME280;43474;46.510;6.686;2022-12-18T05:10:26;97481.28;;;-1.26;100.00
57644;BME280;43474;46.510;6.686;2022-12-18T05:12:52;97482.50;;;-1.20;100.00
57644;BME280;43474;46.510;6.686;2022-12-18T05:15:26;97497.16;;;-1.10;100.00
57644;BME280;43474;46.510;6.686;2022-12-18T05:17:52;97495.94;;;-1.06;100.00
57644;BME280;43474;46.510;6.686;2022-12-18T05:20:18;97492.78;;;-1.09;100.00
57644;BME280;43474;46.510;6.686;2022-12-18T05:22:43;97495.81;;;-0.94;100.00
57644;BME280;43474;46.510;6.686;2022-12-18T05:25:09;97494.13;;;-0.95;100.00
57644;BME280;43474;46.510;6.686;2022-12-18T05:27:34;97502.34;;;-0.90;100.00
57644;BME280;43474;46.510;6.686;2022-12-18T05:30:00;97491.69;;;-0.97;100.00
57644;BME280;43474;46.510;6.686;2022-12-18T05:32:26;97493.31;;;-0.96;100.00
57644;BME280;43474;46.510;6.686;2022-12-18T05:34:51;97494.03;;;-1.03;100.00
57644;BME280;43474;46.510;6.686;2022-12-18T05:37:17;97508.41;;;-0.99;100.00
57644;BME280;43474;46.510;6.686;2022-12-18T05:39:43;97511.94;;;-1.00;100.00
57644;BME280;43474;46.510;6.686;2022-12-18T05:42:09;97506.63;;;-0.99;100.00
57644;BME280;43474;46.510;6.686;2022-12-18T05:44:35;97507.44;;;-0.98;100.00
57644;BME280;43474;46.510;6.686;2022-12-18T05:47:00;97503.19;;;-0.99;100.00
57644;BME280;43474;46.510;6.686;2022-12-18T05:49:26;97501.28;;;-1.07;100.00
57644;BME280;43474;46.510;6.686;2022-12-18T05:51:51;97508.13;;;-0.96;100.00
57644;BME280;43474;46.510;6.686;2022-12-18T05:54:17;97499.22;;;-1.03;100.00
57644;BME280;43474;46.510;6.686;2022-12-18T05:56:42;97520.31;;;-0.87;100.00
57644;BME280;43474;46.510;6.686;2022-12-18T05:59:08;97516.88;;;-0.88;100.00
57644;BME280;43474;46.510;6.686;2022-12-18T06:01:34;97523.06;;;-0.79;100.00
57644;BME280;43474;46.510;6.686;2022-12-18T06:03:59;97509.47;;;-0.83;100.00
57644;BME280;43474;46.510;6.686;2022-12-18T06:06:27;97522.63;;;-0.74;100.00
57644;BME280;43474;46.510;6.686;2022-12-18T06:08:54;97521.25;;;-0.69;100.00
57644;BME280;43474;46.510;6.686;2022-12-18T06:11:25;97512.22;;;-0.84;100.00
57644;BME280;43474;46.510;6.686;2022-12-18T06:13:52;97520.44;;;-0.69;100.00
57644;BME280;43474;46.510;6.686;2022-12-18T06:16:18;97519.06;;;-0.64;100.00
57644;BME280;43474;46.510;6.686;2022-12-18T06:18:44;97521.38;;;-0.61;100.00
57644;BME280;43474;46.510;6.686;2022-12-18T06:21:10;97525.34;;;-0.57;100.00
57644;BME280;43474;46.510;6.686;2022-12-18T06:23:35;97520.97;;;-0.66;100.00
57644;BME280;43474;46.510;6.686;2022-12-18T06:26:06;97526.44;;;-0.59;100.00
57644;BME280;43474;46.510;6.686;2022-12-18T06:28:32;97533.00;;;-0.55;100.00
57644;BME280;43474;46.510;6.686;2022-12-18T06:30:58;97529.72;;;-0.47;100.00
57644;BME280;43474;46.510;6.686;2022-12-18T06:33:27;97543.97;;;-0.52;100.00
57644;BME280;43474;46.510;6.686;2022-12-18T06:35:54;97531.25;;;-0.64;100.00
57644;BME280;43474;46.510;6.686;2022-12-18T06:38:19;97549.59;;;-0.56;100.00
57644;BME280;43474;46.510;6.686;2022-12-18T06:40:45;97560.00;;;-0.56;100.00
57644;BME280;43474;46.510;6.686;2022-12-18T06:43:10;97566.31;;;-0.59;100.00
57644;BME280;43474;46.510;6.686;2022-12-18T06:45:36;97561.22;;;-0.60;100.00
57644;BME280;43474;46.510;6.686;2022-12-18T06:48:01;97554.78;;;-0.66;100.00
57644;BME280;43474;46.510;6.686;2022-12-18T06:50:27;97578.09;;;-0.55;100.00
57644;BME280;43474;46.510;6.686;2022-12-18T06:52:53;97581.13;;;-0.49;100.00
57644;BME280;43474;46.510;6.686;2022-12-18T06:55:19;97579.34;;;-0.59;100.00
57644;BME280;43474;46.510;6.686;2022-12-18T06:57:44;97584.81;;;-0.52;100.00
57644;BME280;43474;46.510;6.686;2022-12-18T07:00:10;97586.31;;;-0.49;100.00
57644;BME280;43474;46.510;6.686;2022-12-18T07:02:36;97598.47;;;-0.40;100.00
57644;BME280;43474;46.510;6.686;2022-12-18T07:05:02;97586.44;;;-0.41;100.00
57644;BME280;43474;46.510;6.686;2022-12-18T07:07:27;97593.84;;;-0.37;100.00
57644;BME280;43474;46.510;6.686;2022-12-18T07:09:53;97595.34;;;-0.34;100.00
57644;BME280;43474;46.510;6.686;2022-12-18T07:12:19;97585.06;;;-0.45;100.00
57644;BME280;43474;46.510;6.686;2022-12-18T07:14:44;97606.16;;;-0.29;100.00
57644;BME280;43474;46.510;6.686;2022-12-18T07:17:10;97608.22;;;-0.23;100.00
57644;BME280;43474;46.510;6.686;2022-12-18T07:19:35;97603.28;;;-0.26;100.00
57644;BME280;43474;46.510;6.686;2022-12-18T07:22:01;97620.41;;;-0.23;100.00
57644;BME280;43474;46.510;6.686;2022-12-18T07:24:27;97617.94;;;-0.25;100.00
57644;BME280;43474;46.510;6.686;2022-12-18T07:26:52;97584.22;;;-0.36;100.00
57644;BME280;43474;46.510;6.686;2022-12-18T07:29:18;97602.28;;;-0.15;100.00
57644;BME280;43474;46.510;6.686;2022-12-18T07:31:44;97608.06;;;-0.12;100.00
57644;BME280;43474;46.510;6.686;2022-12-18T07:34:11;97606.00;;;-0.18;100.00
57644;BME280;43474;46.510;6.686;2022-12-18T07:36:37;97619.28;;;-0.11;100.00
57644;BME280;43474;46.510;6.686;2022-12-18T07:39:02;97614.38;;;-0.14;100.00
57644;BME280;43474;46.510;6.686;2022-12-18T07:41:28;97630.41;;;0.01;100.00
57644;BME280;43474;46.510;6.686;2022-12-18T07:43:54;97629.81;;;0.07;100.00
57644;BME280;43474;46.510;6.686;2022-12-18T07:46:19;97616.94;;;0.05;100.00
57644;BME280;43474;46.510;6.686;2022-12-18T07:48:45;97626.50;;;0.14;100.00
57644;BME280;43474;46.510;6.686;2022-12-18T07:51:12;97618.69;;;0.14;100.00
57644;BME280;43474;46.510;6.686;2022-12-18T07:53:38;97635.84;;;0.17;100.00
57644;BME280;43474;46.510;6.686;2022-12-18T07:56:09;97625.25;;;0.18;100.00
57644;BME280;43474;46.510;6.686;2022-12-18T07:58:36;97629.38;;;0.21;100.00
57644;BME280;43474;46.510;6.686;2022-12-18T08:01:11;97636.31;;;0.40;100.00
57644;BME280;43474;46.510;6.686;2022-12-18T08:03:39;97631.78;;;0.42;100.00
57644;BME280;43474;46.510;6.686;2022-12-18T08:06:06;97640.56;;;0.41;100.00
57644;BME280;43474;46.510;6.686;2022-12-18T08:08:33;97613.97;;;0.37;100.00
57644;BME280;43474;46.510;6.686;2022-12-18T08:10:59;97636.97;;;0.51;100.00
57644;BME280;43474;46.510;6.686;2022-12-18T08:13:26;97637.91;;;0.60;100.00
57644;BME280;43474;46.510;6.686;2022-12-18T08:16:05;97640.06;;;0.65;100.00
57644;BME280;43474;46.510;6.686;2022-12-18T08:18:32;97640.91;;;0.65;100.00
57644;BME280;43474;46.510;6.686;2022-12-18T08:23:39;97640.00;;;0.74;100.00
57644;BME280;43474;46.510;6.686;2022-12-18T08:26:05;97625.63;;;0.70;100.00
57644;BME280;43474;46.510;6.686;2022-12-18T08:28:30;97632.13;;;0.84;100.00
57644;BME280;43474;46.510;6.686;2022-12-18T08:30:56;97642.53;;;0.94;100.00
57644;BME280;43474;46.510;6.686;2022-12-18T08:33:22;97636.16;;;1.06;100.00
57644;BME280;43474;46.510;6.686;2022-12-18T08:35:47;97611.41;;;1.10;100.00
57644;BME280;43474;46.510;6.686;2022-12-18T08:38:13;97627.44;;;1.33;100.00
57644;BME280;43474;46.510;6.686;2022-12-18T08:40:38;97615.81;;;1.45;100.00
57644;BME280;43474;46.510;6.686;2022-12-18T08:43:04;97619.91;;;1.66;100.00
57644;BME280;43474;46.510;6.686;2022-12-18T08:45:48;97610.03;;;1.77;100.00
57644;BME280;43474;46.510;6.686;2022-12-18T08:48:15;97614.16;;;1.80;100.00
57644;BME280;43474;46.510;6.686;2022-12-18T08:50:40;97622.56;;;1.74;100.00
57644;BME280;43474;46.510;6.686;2022-12-18T08:53:06;97616.31;;;1.67;100.00
57644;BME280;43474;46.510;6.686;2022-12-18T08:55:31;97614.59;;;1.58;100.00
57644;BME280;43474;46.510;6.686;2022-12-18T08:57:57;97612.00;;;1.58;100.00
57644;BME280;43474;46.510;6.686;2022-12-18T09:00:23;97621.78;;;1.55;100.00
57644;BME280;43474;46.510;6.686;2022-12-18T09:02:49;97609.16;;;1.33;100.00
57644;BME280;43474;46.510;6.686;2022-12-18T09:05:15;97621.03;;;1.45;100.00
57644;BME280;43474;46.510;6.686;2022-12-18T09:07:41;97609.78;;;1.45;100.00
57644;BME280;43474;46.510;6.686;2022-12-18T09:10:07;97638.50;;;1.63;100.00
57644;BME280;43474;46.510;6.686;2022-12-18T09:12:33;97620.88;;;1.65;100.00
57644;BME280;43474;46.510;6.686;2022-12-18T09:14:58;97624.72;;;1.78;100.00
57644;BME280;43474;46.510;6.686;2022-12-18T09:17:24;97625.91;;;2.02;100.00
57644;BME280;43474;46.510;6.686;2022-12-18T09:19:50;97612.31;;;1.98;100.00
57644;BME280;43474;46.510;6.686;2022-12-18T09:22:16;97636.34;;;2.02;100.00
57644;BME280;43474;46.510;6.686;2022-12-18T09:24:41;97637.25;;;1.93;100.00
57644;BME280;43474;46.510;6.686;2022-12-18T09:27:07;97632.84;;;1.93;100.00
57644;BME280;43474;46.510;6.686;2022-12-18T09:29:32;97639.22;;;1.91;100.00
57644;BME280;43474;46.510;6.686;2022-12-18T09:31:58;97633.00;;;2.10;100.00
57644;BME280;43474;46.510;6.686;2022-12-18T09:34:24;97634.16;;;2.41;100.00
57644;BME280;43474;46.510;6.686;2022-12-18T09:36:50;97633.88;;;3.78;100.00
57644;BME280;43474;46.510;6.686;2022-12-18T09:39:16;97608.44;;;4.44;100.00
57644;BME280;43474;46.510;6.686;2022-12-18T09:41:45;97630.75;;;4.31;100.00
57644;BME280;43474;46.510;6.686;2022-12-18T09:44:20;97627.16;;;4.88;100.00
57644;BME280;43474;46.510;6.686;2022-12-18T09:46:51;97620.19;;;5.03;100.00
57644;BME280;43474;46.510;6.686;2022-12-18T09:49:23;97636.94;;;4.47;100.00
57644;BME280;43474;46.510;6.686;2022-12-18T09:52:04;97635.53;;;4.11;100.00
57644;BME280;43474;46.510;6.686;2022-12-18T09:54:39;97628.31;;;3.56;100.00
57644;BME280;43474;46.510;6.686;2022-12-18T09:57:05;97631.44;;;3.44;100.00
57644;BME280;43474;46.510;6.686;2022-12-18T09:59:35;97627.63;;;3.30;100.00
57644;BME280;43474;46.510;6.686;2022-12-18T10:02:20;97619.75;;;3.14;100.00
57644;BME280;43474;46.510;6.686;2022-12-18T10:07:50;97631.94;;;2.97;100.00
57644;BME280;43474;46.510;6.686;2022-12-18T10:13:15;97630.22;;;3.14;100.00
57644;BME280;43474;46.510;6.686;2022-12-18T10:15:58;97631.94;;;3.63;100.00
57644;BME280;43474;46.510;6.686;2022-12-18T10:21:03;97629.78;;;3.34;100.00
57644;BME280;43474;46.510;6.686;2022-12-18T10:23:42;97629.91;;;3.33;100.00
57644;BME280;43474;46.510;6.686;2022-12-18T10:26:10;97614.19;;;3.33;100.00
57644;BME280;43474;46.510;6.686;2022-12-18T10:28:39;97628.63;;;3.45;100.00
57644;BME280;43474;46.510;6.686;2022-12-18T10:31:06;97628.81;;;3.52;100.00
57644;BME280;43474;46.510;6.686;2022-12-18T10:33:32;97615.72;;;3.44;100.00
57644;BME280;43474;46.510;6.686;2022-12-18T10:35:58;97612.44;;;3.50;100.00
57644;BME280;43474;46.510;6.686;2022-12-18T10:38:27;97604.22;;;3.77;100.00
57644;BME280;43474;46.510;6.686;2022-12-18T10:40:59;97611.63;;;3.66;100.00
57644;BME280;43474;46.510;6.686;2022-12-18T10:51:05;97616.03;;;3.49;100.00
57644;BME280;43474;46.510;6.686;2022-12-18T10:53:33;97633.22;;;3.43;100.00
57644;BME280;43474;46.510;6.686;2022-12-18T10:56:00;97605.03;;;3.29;100.00
57644;BME280;43474;46.510;6.686;2022-12-18T10:58:35;97609.47;;;3.36;100.00
57644;BME280;43474;46.510;6.686;2022-12-18T11:03:33;97626.84;;;4.11;100.00
57644;BME280;43474;46.510;6.686;2022-12-18T11:06:06;97609.94;;;4.22;100.00
57644;BME280;43474;46.510;6.686;2022-12-18T11:08:32;97615.19;;;4.22;100.00
57644;BME280;43474;46.510;6.686;2022-12-18T11:10:58;97613.09;;;4.73;100.00
57644;BME280;43474;46.510;6.686;2022-12-18T11:13:26;97614.91;;;4.64;100.00
57644;BME280;43474;46.510;6.686;2022-12-18T11:15:53;97622.06;;;4.39;100.00
57644;BME280;43474;46.510;6.686;2022-12-18T11:18:25;97612.41;;;4.15;100.00
57644;BME280;43474;46.510;6.686;2022-12-18T11:21:07;97605.22;;;3.84;100.00
57644;BME280;43474;46.510;6.686;2022-12-18T11:23:34;97609.47;;;3.61;100.00
57644;BME280;43474;46.510;6.686;2022-12-18T11:26:04;97616.19;;;3.72;100.00
57644;BME280;43474;46.510;6.686;2022-12-18T11:28:35;97620.94;;;3.76;100.00
57644;BME280;43474;46.510;6.686;2022-12-18T11:34:06;97619.16;;;3.85;100.00
57644;BME280;43474;46.510;6.686;2022-12-18T11:36:33;97630.44;;;3.77;100.00
57644;BME280;43474;46.510;6.686;2022-12-18T11:39:09;97602.59;;;3.60;100.00
57644;BME280;43474;46.510;6.686;2022-12-18T11:41:47;97619.47;;;3.90;100.00
57644;BME280;43474;46.510;6.686;2022-12-18T11:44:49;97602.28;;;3.96;100.00
57644;BME280;43474;46.510;6.686;2022-12-18T11:47:34;97603.38;;;4.18;100.00
57644;BME280;43474;46.510;6.686;2022-12-18T11:50:12;97582.25;;;4.19;100.00
57644;BME280;43474;46.510;6.686;2022-12-18T11:52:40;97581.50;;;4.41;100.00
57644;BME280;43474;46.510;6.686;2022-12-18T11:55:15;97588.19;;;4.52;100.00
57644;BME280;43474;46.510;6.686;2022-12-18T12:00:22;97554.84;;;5.00;100.00
57644;BME280;43474;46.510;6.686;2022-12-18T12:03:39;97554.28;;;5.13;100.00
57644;BME280;43474;46.510;6.686;2022-12-18T12:06:34;97567.66;;;5.26;100.00
57644;BME280;43474;46.510;6.686;2022-12-18T12:12:06;97563.78;;;5.60;100.00
57644;BME280;43474;46.510;6.686;2022-12-18T12:26:14;97546.50;;;4.57;100.00
57644;BME280;43474;46.510;6.686;2022-12-18T12:29:09;97541.28;;;4.88;100.00
57644;BME280;43474;46.510;6.686;2022-12-18T12:35:07;97539.97;;;5.15;100.00
57644;BME280;43474;46.510;6.686;2022-12-18T12:38:08;97522.34;;;5.24;100.00
57644;BME280;43474;46.510;6.686;2022-12-18T12:40:39;97531.03;;;5.25;100.00
57644;BME280;43474;46.510;6.686;2022-12-18T12:43:22;97524.63;;;5.27;100.00
57644;BME280;43474;46.510;6.686;2022-12-18T12:45:55;97532.25;;;5.37;100.00
57644;BME280;43474;46.510;6.686;2022-12-18T12:48:43;97530.28;;;5.16;100.00
57644;BME280;43474;46.510;6.686;2022-12-18T12:51:17;97537.28;;;5.24;100.00
57644;BME280;43474;46.510;6.686;2022-12-18T12:53:44;97531.66;;;5.27;100.00
57644;BME280;43474;46.510;6.686;2022-12-18T12:56:14;97525.19;;;5.14;100.00
57644;BME280;43474;46.510;6.686;2022-12-18T13:10:12;97523.06;;;5.18;100.00
57644;BME280;43474;46.510;6.686;2022-12-18T13:15:35;97516.09;;;5.02;100.00
57644;BME280;43474;46.510;6.686;2022-12-18T13:20:35;97520.56;;;4.93;100.00
57644;BME280;43474;46.510;6.686;2022-12-18T13:25:48;97508.28;;;4.86;100.00
57644;BME280;43474;46.510;6.686;2022-12-18T13:28:16;97505.88;;;4.76;100.00
57644;BME280;43474;46.510;6.686;2022-12-18T13:30:46;97518.00;;;4.85;100.00
57644;BME280;43474;46.510;6.686;2022-12-18T13:38:24;97482.69;;;4.88;100.00
57644;BME280;43474;46.510;6.686;2022-12-18T13:43:37;97492.09;;;4.82;100.00
57644;BME280;43474;46.510;6.686;2022-12-18T13:49:01;97505.06;;;4.76;100.00
57644;BME280;43474;46.510;6.686;2022-12-18T13:51:28;97499.88;;;4.68;100.00
57644;BME280;43474;46.510;6.686;2022-12-18T13:54:01;97481.72;;;4.58;100.00
57644;BME280;43474;46.510;6.686;2022-12-18T13:56:31;97497.09;;;4.69;100.00
57644;BME280;43474;46.510;6.686;2022-12-18T14:01:54;97509.34;;;4.37;100.00
57644;BME280;43474;46.510;6.686;2022-12-18T14:04:25;97502.91;;;4.09;100.00
57644;BME280;43474;46.510;6.686;2022-12-18T14:09:58;97491.84;;;3.58;100.00
57644;BME280;43474;46.510;6.686;2022-12-18T14:12:28;97488.75;;;3.62;100.00
57644;BME280;43474;46.510;6.686;2022-12-18T14:20:19;97498.91;;;3.66;100.00
57644;BME280;43474;46.510;6.686;2022-12-18T14:22:48;97502.50;;;3.73;100.00
57644;BME280;43474;46.510;6.686;2022-12-18T14:25:24;97507.88;;;3.87;100.00
57644;BME280;43474;46.510;6.686;2022-12-18T14:30:35;97500.53;;;3.83;100.00
57644;BME280;43474;46.510;6.686;2022-12-18T14:33:11;97499.03;;;3.80;100.00
57644;BME280;43474;46.510;6.686;2022-12-18T14:35:43;97509.72;;;3.71;100.00
57644;BME280;43474;46.510;6.686;2022-12-18T14:38:24;97519.06;;;3.32;100.00
57644;BME280;43474;46.510;6.686;2022-12-18T14:41:10;97514.00;;;3.31;100.00
57644;BME280;43474;46.510;6.686;2022-12-18T14:43:38;97503.66;;;3.13;100.00
57644;BME280;43474;46.510;6.686;2022-12-18T14:46:20;97510.06;;;3.27;100.00
57644;BME280;43474;46.510;6.686;2022-12-18T14:48:51;97520.72;;;3.33;100.00
57644;BME280;43474;46.510;6.686;2022-12-18T14:51:21;97500.22;;;3.37;100.00